Kezdőlap
METAR-TAF:

METAR-TAF

Repülőterek :

Guiyang, Kína

földrajzi szélesség: 26-32-19N, földrajzi hosszúság: 106-48-03E, magasság: 1139 m

Jelenlegi meteorológiai megfigyelések

A jelentés 47 perccel ezelõtt készült, 22:00 UTC
Dél-délnyugati szél 10 kt
Hőmérséklet 23°C
Páratartalom 78%
Légköri nyomás 1012 hPa
Látótávolság 10 km, vagy több
Szakadozott felhőzet 4000 lábon

METAR: ZUGY 202200Z 20005MPS 9999 BKN040 23/19 Q1012 NOSIG

Idő: 06:47 (22:47 UTC)

Előrejelzés

A jelentés 7 órával és 46 perccel ezelõtt készült, 15:01 UTC
Az előrejelzés 20-én 18 óra UTC és 21-én 18 óra UTC között érvényes
Déli szél 12 kt széllökések: 23 kt
Látótávolság: 6000 m
Szakadozott felhőzet 3300 lábon

TAF: ZUGY 201501Z 2018/2118 19006G12MPS 6000 BKN033 TX32/2107Z TN23/2022Z

Meteorológiai megfigyelések és előrejelzések több, mint 4000 repülőtéren (METAR és TAF jelentéseket).

A térképen piros és sárga pontok jelzik az elérhető meteorológiai állomásokat.

Mozgassa az egeret a pont fölött, hogy megjelenjen az állomás neve.

Azután kattintson az időjárási megfigyelések és előrejelzések megtekintéséhez.

A térkép megváltoztatása: kattintson a fekete keresztel jelölt zöld gombra ráközelítéshez, a vonallal jelölt zöld gombra távolításhoz, vagy a zöld nyilakra a szomszédos térképek eléréséhez.


METAR-TAF: